Time;durP1;ratioP1;P1;durP2;ratioP2;P2;SDS_P1;SDS_P2;PMS_P1;PMS_P2;Temp;Humidity;BMP_temperature;BMP_pressure;BME280_temperature;BME280_humidity;BME280_pressure;Samples;Min_cycle;Max_cycle;Signal;HPM_P1;HPM_P2
2021/10/10 00:02:45;;;;;;;3.58;2.17;;;22.20;52.90;;;;;;6309317;28;20033;-73
2021/10/10 00:05:45;;;;;;;2.58;1.75;;;22.20;53.00;;;;;;6294608;28;20335;-73
2021/10/10 00:08:46;;;;;;;2.60;2.05;;;22.20;52.90;;;;;;6327271;28;20042;-73
2021/10/10 00:11:46;;;;;;;2.50;2.00;;;22.20;53.00;;;;;;6317977;28;20135;-73
2021/10/10 00:14:47;;;;;;;2.35;1.75;;;22.20;52.90;;;;;;6293966;28;20025;-74
2021/10/10 00:17:47;;;;;;;2.63;2.05;;;22.20;53.00;;;;;;6301770;28;20471;-74
2021/10/10 00:20:48;;;;;;;2.67;2.03;;;22.20;53.00;;;;;;6318654;28;20028;-73
2021/10/10 00:23:49;;;;;;;2.45;1.88;;;22.20;53.00;;;;;;6303233;28;20021;-74
2021/10/10 00:26:49;;;;;;;3.30;2.25;;;22.20;52.90;;;;;;6303908;28;20029;-73
2021/10/10 00:29:50;;;;;;;2.95;2.25;;;22.20;52.90;;;;;;6293542;28;20027;-74
2021/10/10 00:32:51;;;;;;;2.63;2.03;;;22.20;53.10;;;;;;6302863;28;20472;-73
2021/10/10 00:35:52;;;;;;;2.90;1.90;;;22.20;53.00;;;;;;6309512;28;20039;-73
2021/10/10 00:38:52;;;;;;;2.65;1.88;;;22.20;53.00;;;;;;6295219;28;20032;-73
2021/10/10 00:41:53;;;;;;;2.05;1.50;;;22.20;53.00;;;;;;6298168;28;20039;-73
2021/10/10 00:44:53;;;;;;;2.22;1.85;;;22.20;53.00;;;;;;6293395;28;20027;-72
2021/10/10 00:47:54;;;;;;;2.55;2.00;;;22.20;53.20;;;;;;6306793;28;20028;-73
2021/10/10 00:50:55;;;;;;;2.15;1.60;;;22.20;53.10;;;;;;6318399;28;20036;-73
2021/10/10 00:53:56;;;;;;;3.35;2.03;;;22.20;53.10;;;;;;6293176;28;20082;-73
2021/10/10 00:56:57;;;;;;;3.40;1.92;;;22.20;53.10;;;;;;6297249;28;20032;-74
2021/10/10 00:59:59;;;;;;;2.22;1.70;;;22.20;53.00;;;;;;6318173;28;20058;-74
2021/10/10 01:03:00;;;;;;;2.25;1.83;;;22.20;53.10;;;;;;6305930;28;20497;-73
2021/10/10 01:06:00;;;;;;;2.17;1.60;;;22.20;53.00;;;;;;6318291;28;20040;-73
2021/10/10 01:09:01;;;;;;;1.90;1.70;;;22.20;53.00;;;;;;6302465;28;20035;-74
2021/10/10 01:12:06;;;;;;;2.22;1.70;;;22.20;53.10;;;;;;6292776;28;20360;-74
2021/10/10 01:15:07;;;;;;;;;;;22.20;53.20;;;;;;6304772;28;20476;-73
2021/10/10 01:18:07;;;;;;;2.53;1.83;;;22.20;53.10;;;;;;6305890;28;19911;-73
2021/10/10 01:21:08;;;;;;;2.67;1.80;;;22.20;53.10;;;;;;6293261;28;20029;-74
2021/10/10 01:24:08;;;;;;;2.67;1.90;;;22.20;53.20;;;;;;6307087;28;20415;-74
2021/10/10 01:27:09;;;;;;;2.45;2.00;;;22.20;53.10;;;;;;6306302;28;20055;-73
2021/10/10 01:30:10;;;;;;;2.22;1.67;;;22.20;53.20;;;;;;6317738;28;20056;-74
2021/10/10 01:33:12;;;;;;;2.60;2.05;;;22.20;53.20;;;;;;6308156;28;20499;-74
2021/10/10 01:36:14;;;;;;;2.45;1.90;;;22.20;53.10;;;;;;6293301;28;20060;-73
2021/10/10 01:39:14;;;;;;;2.05;1.80;;;22.20;53.20;;;;;;6297518;28;20086;-73
2021/10/10 01:42:15;;;;;;;2.75;2.05;;;22.20;53.10;;;;;;6306500;28;20032;-73
2021/10/10 01:45:17;;;;;;;2.75;1.90;;;22.20;53.10;;;;;;6322571;28;20032;-74
2021/10/10 01:48:18;;;;;;;2.03;1.80;;;22.20;53.20;;;;;;6305517;28;20052;-74
2021/10/10 01:51:18;;;;;;;2.75;1.98;;;22.20;53.20;;;;;;6297406;28;20078;-73
2021/10/10 01:54:19;;;;;;;1.65;1.55;;;22.20;53.20;;;;;;6318703;28;20055;-73
2021/10/10 01:57:19;;;;;;;2.17;1.80;;;22.20;53.20;;;;;;6304285;28;20056;-73
2021/10/10 02:00:20;;;;;;;2.75;1.95;;;22.20;53.20;;;;;;6322298;28;20048;-73
2021/10/10 02:03:20;;;;;;;3.20;2.15;;;22.20;53.20;;;;;;6306843;28;20428;-74
2021/10/10 02:06:21;;;;;;;3.05;2.10;;;22.20;53.20;;;;;;6297154;28;20028;-73
2021/10/10 02:09:21;;;;;;;2.22;1.73;;;22.20;53.20;;;;;;6319415;28;20089;-73
2021/10/10 02:12:22;;;;;;;3.13;2.20;;;22.20;53.20;;;;;;6316280;28;20097;-74
2021/10/10 02:15:22;;;;;;;3.05;2.17;;;22.20;53.20;;;;;;6296310;28;20066;-73
2021/10/10 02:18:24;;;;;;;2.53;1.70;;;22.20;53.20;;;;;;6310019;28;20051;-73
2021/10/10 02:21:24;;;;;;;2.53;1.92;;;22.20;53.20;;;;;;6321408;28;20059;-73
2021/10/10 02:24:25;;;;;;;2.72;1.88;;;22.20;53.20;;;;;;6300559;28;20127;-74
2021/10/10 02:27:26;;;;;;;2.50;1.90;;;22.20;53.20;;;;;;6318704;28;20232;-73
2021/10/10 02:30:26;;;;;;;2.33;1.77;;;22.20;53.20;;;;;;6321320;28;20111;-73
2021/10/10 02:33:27;;;;;;;3.35;2.15;;;22.20;53.20;;;;;;6300609;28;20049;-73
2021/10/10 02:36:27;;;;;;;2.80;1.92;;;22.20;53.20;;;;;;6313751;28;20037;-73
2021/10/10 02:39:28;;;;;;;2.65;1.80;;;22.20;53.20;;;;;;6296283;28;20025;-73
2021/10/10 02:42:28;;;;;;;2.42;1.90;;;22.20;53.20;;;;;;6306828;28;20050;-73
2021/10/10 02:45:29;;;;;;;2.25;1.77;;;22.20;53.20;;;;;;6321098;28;20027;-73
2021/10/10 02:48:29;;;;;;;2.80;2.10;;;22.20;53.30;;;;;;6301236;28;20032;-74
2021/10/10 02:51:30;;;;;;;2.65;1.90;;;22.20;53.20;;;;;;6296991;28;20092;-73
2021/10/10 02:54:31;;;;;;;2.50;1.90;;;22.10;53.10;;;;;;6316814;28;20037;-73
2021/10/10 02:57:31;;;;;;;2.88;1.83;;;22.20;53.20;;;;;;6301419;28;20437;-73
2021/10/10 03:00:32;;;;;;;2.78;1.80;;;22.20;53.30;;;;;;6320786;28;20119;-73
2021/10/10 03:03:33;;;;;;;2.92;1.83;;;22.20;53.30;;;;;;6311486;28;20383;-73
2021/10/10 03:06:34;;;;;;;2.90;2.05;;;22.20;53.20;;;;;;6295551;28;20111;-73
2021/10/10 03:09:34;;;;;;;2.95;1.90;;;22.10;53.10;;;;;;6318066;28;20097;-73
2021/10/10 03:12:35;;;;;;;2.40;1.80;;;22.20;53.20;;;;;;6315053;28;20090;-74
2021/10/10 03:15:39;;;;;;;2.67;1.90;;;22.20;53.20;;;;;;6295500;28;20024;-74
2021/10/10 03:18:39;;;;;;;4.50;1.97;;;22.20;53.20;;;;;;6305114;28;20040;-74
2021/10/10 03:21:40;;;;;;;3.53;1.90;;;22.20;53.20;;;;;;6295654;28;20535;-73
2021/10/10 03:24:41;;;;;;;2.30;1.67;;;22.20;53.20;;;;;;6294868;28;20028;-74
2021/10/10 03:27:41;;;;;;;3.28;2.30;;;22.10;53.10;;;;;;6305100;28;20078;-73
2021/10/10 03:30:42;;;;;;;2.40;1.98;;;22.10;53.20;;;;;;6292153;28;20028;-73
2021/10/10 03:33:42;;;;;;;3.08;2.13;;;22.10;53.10;;;;;;6316366;28;20632;-73
2021/10/10 03:36:43;;;;;;;2.42;1.75;;;22.10;53.10;;;;;;6314337;28;20115;-73
2021/10/10 03:39:44;;;;;;;3.33;2.10;;;22.20;53.30;;;;;;6294872;28;20024;-73
2021/10/10 03:42:44;;;;;;;2.95;2.10;;;22.10;53.20;;;;;;6307558;28;20036;-73
2021/10/10 03:45:45;;;;;;;3.17;2.20;;;22.10;53.20;;;;;;6319927;28;20020;-73
2021/10/10 03:48:45;;;;;;;2.97;2.00;;;22.10;53.20;;;;;;6298491;28;20058;-73
2021/10/10 03:51:46;;;;;;;2.83;1.92;;;22.10;53.20;;;;;;6298071;28;20494;-74
2021/10/10 03:58:06;;;;;;;2.47;1.83;;;22.20;53.30;;;;;;6308025;28;20032;-74
2021/10/10 04:01:07;;;;;;;2.60;1.80;;;22.10;53.20;;;;;;6319404;28;20495;-73
2021/10/10 04:04:08;;;;;;;2.85;2.08;;;22.20;53.30;;;;;;6297711;28;20025;-78
2021/10/10 04:07:08;;;;;;;3.17;2.30;;;22.10;53.20;;;;;;6291912;28;20028;-73
2021/10/10 04:10:09;;;;;;;3.00;2.20;;;22.10;53.10;;;;;;6317658;28;20096;-74
2021/10/10 04:13:09;;;;;;;2.70;2.00;;;22.20;53.20;;;;;;6305816;28;20052;-73
2021/10/10 04:16:10;;;;;;;3.05;1.95;;;22.10;53.20;;;;;;6293826;28;20039;-73
2021/10/10 04:19:10;;;;;;;2.25;1.70;;;22.10;53.20;;;;;;6311159;28;20039;-73
2021/10/10 04:22:11;;;;;;;2.30;2.00;;;22.10;53.10;;;;;;6319192;28;20387;-73
2021/10/10 04:25:11;;;;;;;2.78;1.83;;;22.10;53.20;;;;;;6298584;28;20048;-73
2021/10/10 04:28:12;;;;;;;2.88;1.92;;;22.10;53.20;;;;;;6299489;28;20028;-74
2021/10/10 04:31:12;;;;;;;2.95;2.10;;;22.10;53.10;;;;;;6295583;28;20119;-73
2021/10/10 04:34:14;;;;;;;2.88;2.13;;;22.10;53.10;;;;;;6316462;28;20544;-73
2021/10/10 04:37:15;;;;;;;2.58;1.95;;;22.10;53.20;;;;;;6303107;28;20047;-73
2021/10/10 04:40:15;;;;;;;2.55;1.92;;;22.10;53.20;;;;;;6318556;28;20324;-73
2021/10/10 04:43:16;;;;;;;2.13;1.63;;;22.10;53.10;;;;;;6301419;28;20527;-73
2021/10/10 04:46:16;;;;;;;2.85;1.70;;;22.10;53.20;;;;;;6307046;28;20024;-73
2021/10/10 04:49:17;;;;;;;2.22;1.70;;;22.10;53.10;;;;;;6293397;28;20021;-73
2021/10/10 04:52:18;;;;;;;3.13;2.00;;;22.10;53.10;;;;;;6300721;28;20098;-73
2021/10/10 04:55:18;;;;;;;2.80;2.00;;;22.10;53.10;;;;;;6315013;28;20020;-73
2021/10/10 04:58:19;;;;;;;2.38;1.80;;;22.10;53.10;;;;;;6302949;28;20476;-73
2021/10/10 05:01:19;;;;;;;2.70;1.90;;;22.10;53.10;;;;;;6292061;28;20080;-73
2021/10/10 05:04:20;;;;;;;3.10;2.13;;;22.10;53.20;;;;;;6316191;28;20032;-73
2021/10/10 05:07:20;;;;;;;2.88;2.10;;;22.10;53.10;;;;;;6316763;28;20427;-73
2021/10/10 05:10:21;;;;;;;2.50;1.92;;;22.10;53.10;;;;;;6292567;28;20053;-74
2021/10/10 05:13:21;;;;;;;3.90;2.05;;;22.10;53.10;;;;;;6301678;28;20036;-74
2021/10/10 05:16:22;;;;;;;3.00;2.10;;;22.10;53.10;;;;;;6300116;28;20487;-73
2021/10/10 05:19:22;;;;;;;3.28;2.20;;;22.10;53.20;;;;;;6300542;28;20098;-73
2021/10/10 05:22:23;;;;;;;2.80;2.13;;;22.10;53.10;;;;;;6292727;28;20519;-73
2021/10/10 05:25:23;;;;;;;3.15;1.90;;;22.10;53.10;;;;;;6310620;28;20097;-73
2021/10/10 05:28:24;;;;;;;3.22;1.80;;;22.10;53.10;;;;;;6313265;28;20410;-74
2021/10/10 05:31:25;;;;;;;6.05;2.03;;;22.10;53.10;;;;;;6314239;28;20036;-73
2021/10/10 05:34:25;;;;;;;2.72;2.03;;;22.10;53.20;;;;;;6292965;28;20031;-74
2021/10/10 05:37:26;;;;;;;2.78;1.90;;;22.10;53.10;;;;;;6303904;28;20086;-73
2021/10/10 05:40:26;;;;;;;3.00;2.03;;;22.10;53.10;;;;;;6317726;28;20028;-74
2021/10/10 05:43:27;;;;;;;3.10;2.15;;;22.10;53.10;;;;;;6298695;28;20027;-73
2021/10/10 05:46:27;;;;;;;3.35;2.08;;;22.10;53.10;;;;;;6294163;28;20086;-73
2021/10/10 05:49:28;;;;;;;2.88;2.00;;;22.10;53.10;;;;;;6317662;28;20012;-73
2021/10/10 05:52:28;;;;;;;3.03;2.10;;;22.10;53.10;;;;;;6310713;28;20074;-74
2021/10/10 05:55:29;;;;;;;3.15;1.90;;;22.10;53.10;;;;;;6318243;28;20035;-74
2021/10/10 05:58:33;;;;;;;3.67;2.58;;;22.10;53.10;;;;;;6300674;28;20372;-74
2021/10/10 06:01:33;;;;;;;3.80;2.25;;;22.10;53.10;;;;;;6292624;28;20029;-73
2021/10/10 06:04:34;;;;;;;3.03;2.40;;;22.10;53.10;;;;;;6317429;28;20052;-74
2021/10/10 06:07:34;;;;;;;2.60;1.90;;;22.10;53.10;;;;;;6309137;28;20020;-74
2021/10/10 06:10:36;;;;;;;3.65;2.42;;;22.10;53.10;;;;;;6291947;28;20045;-74
2021/10/10 06:13:38;;;;;;;3.10;2.25;;;22.10;53.10;;;;;;6307873;28;20047;-73
2021/10/10 06:16:38;;;;;;;2.50;2.03;;;22.10;53.10;;;;;;6292145;28;20499;-73
2021/10/10 06:19:39;;;;;;;3.67;2.50;;;22.10;53.10;;;;;;6315979;28;20016;-74
2021/10/10 06:22:39;;;;;;;3.35;2.15;;;22.10;53.10;;;;;;6310508;28;20044;-74
2021/10/10 06:25:40;;;;;;;2.53;1.98;;;22.10;53.10;;;;;;6305859;28;20845;-73
2021/10/10 06:28:41;;;;;;;3.08;1.98;;;22.10;53.10;;;;;;6298047;28;20455;-73
2021/10/10 06:31:41;;;;;;;2.92;2.22;;;22.10;53.10;;;;;;6302023;28;20478;-74
2021/10/10 06:34:42;;;;;;;2.88;2.13;;;22.10;53.10;;;;;;6315237;28;20023;-73
2021/10/10 06:37:43;;;;;;;2.95;2.13;;;22.10;53.10;;;;;;6309894;28;20624;-73
2021/10/10 06:40:45;;;;;;;3.15;2.42;;;22.10;53.10;;;;;;6321643;28;20044;-73
2021/10/10 06:43:46;;;;;;;2.67;2.28;;;22.10;53.10;;;;;;6299343;28;20031;-74
2021/10/10 06:46:47;;;;;;;3.47;2.33;;;22.10;53.10;;;;;;6300112;28;20020;-73
2021/10/10 06:49:47;;;;;;;3.10;2.13;;;22.10;53.10;;;;;;6321400;28;20360;-74
2021/10/10 06:52:48;;;;;;;3.50;2.20;;;22.10;53.10;;;;;;6308885;28;20032;-74
2021/10/10 06:55:48;;;;;;;2.78;1.95;;;22.10;53.10;;;;;;6296082;28;20377;-73
2021/10/10 06:58:50;;;;;;;3.90;2.30;;;22.10;53.10;;;;;;6315222;28;20497;-73
2021/10/10 07:01:51;;;;;;;2.67;1.95;;;22.10;53.10;;;;;;6317774;28;20131;-73
2021/10/10 07:04:51;;;;;;;3.03;2.20;;;22.10;53.10;;;;;;6296142;28;20034;-73
2021/10/10 07:07:52;;;;;;;3.70;2.15;;;22.10;53.10;;;;;;6304133;28;20028;-73
2021/10/10 07:10:52;;;;;;;2.92;2.22;;;22.10;53.10;;;;;;6320555;28;20185;-73
2021/10/10 07:13:53;;;;;;;3.20;2.35;;;22.10;53.10;;;;;;6310623;28;20036;-74
2021/10/10 07:16:53;;;;;;;2.65;1.95;;;22.10;53.10;;;;;;6295961;28;20434;-73
2021/10/10 07:23:13;;;;;;;4.10;2.55;;;22.10;53.10;;;;;;6313789;28;20025;-73
2021/10/10 07:26:13;;;;;;;2.90;2.30;;;22.10;53.10;;;;;;6306113;28;20119;-73
2021/10/10 07:29:14;;;;;;;3.00;2.22;;;22.10;53.10;;;;;;6295178;28;20085;-73
2021/10/10 07:32:15;;;;;;;2.88;2.08;;;22.10;53.10;;;;;;6301347;28;20032;-74
2021/10/10 07:35:15;;;;;;;3.05;2.33;;;22.10;53.10;;;;;;6294686;28;20032;-73
2021/10/10 07:38:16;;;;;;;3.55;2.53;;;22.10;53.10;;;;;;6312855;28;20128;-74
2021/10/10 07:41:16;;;;;;;3.35;2.40;;;22.10;53.10;;;;;;6318252;28;20036;-74
2021/10/10 07:44:17;;;;;;;2.85;2.17;;;22.10;53.10;;;;;;6279381;28;20067;-73
2021/10/10 07:50:28;;;;;;;3.70;2.47;;;22.00;53.10;;;;;;6315016;28;20042;-74
2021/10/10 07:53:28;;;;;;;4.18;2.88;;;22.10;53.10;;;;;;6300085;28;20029;-73
2021/10/10 07:56:29;;;;;;;9.43;4.28;;;22.10;52.90;;;;;;6292423;28;20025;-73
2021/10/10 07:59:29;;;;;;;6.10;3.50;;;22.10;52.60;;;;;;6297122;28;20024;-73
2021/10/10 08:02:31;;;;;;;7.65;3.70;;;22.10;52.30;;;;;;6301349;28;21539;-73
2021/10/10 08:05:42;;;;;;;6.40;3.67;;;22.10;52.40;;;;;;6292727;28;20027;-74
2021/10/10 08:08:43;;;;;;;8.88;3.65;;;22.10;52.30;;;;;;6295368;28;20064;-73
2021/10/10 08:11:44;;;;;;;6.15;3.75;;;22.20;52.60;;;;;;6293840;28;20044;-73
2021/10/10 08:14:45;;;;;;;8.50;4.18;;;22.10;52.60;;;;;;6290844;28;20116;-74
2021/10/10 08:17:45;;;;;;;7.38;4.15;;;22.20;52.70;;;;;;6293590;28;20032;-73
2021/10/10 08:20:45;;;;;;;6.30;4.03;;;22.10;52.60;;;;;;6312892;28;20040;-73
2021/10/10 08:23:46;;;;;;;9.27;3.90;;;22.20;53.40;;;;;;6301184;28;20233;-73
2021/10/10 08:26:47;;;;;;;10.88;4.40;;;22.20;53.10;;;;;;6304104;28;20369;-73
2021/10/10 08:29:48;;;;;;;9.95;3.78;;;22.30;53.40;;;;;;6300032;28;20017;-73
2021/10/10 08:32:49;;;;;;;8.55;4.00;;;22.30;53.30;;;;;;6288995;28;20029;-73
2021/10/10 08:35:50;;;;;;;8.68;3.80;;;22.30;52.80;;;;;;6307695;28;20020;-73
2021/10/10 08:38:51;;;;;;;8.13;3.60;;;22.30;53.00;;;;;;6307444;28;20029;-73
2021/10/10 08:41:54;;;;;;;10.52;4.07;;;22.30;53.30;;;;;;6297475;28;20039;-73
2021/10/10 08:48:29;;;;;;;5.72;3.60;;;22.40;53.20;;;;;;6283803;28;20115;-74
2021/10/10 08:51:34;;;;;;;5.18;3.38;;;22.40;53.20;;;;;;6292539;28;20775;-74
2021/10/10 08:54:34;;;;;;;5.97;3.45;;;22.40;53.20;;;;;;6300495;28;20028;-73
2021/10/10 08:57:35;;;;;;;4.70;3.35;;;22.40;53.30;;;;;;6306539;28;20028;-74
2021/10/10 09:00:41;;;;;;;9.25;3.45;;;22.40;53.20;;;;;;6291574;28;20111;-73
2021/10/10 09:03:47;;;;;;;6.22;3.80;;;22.40;53.40;;;;;;6312080;28;20051;-75
2021/10/10 09:06:47;;;;;;;5.78;3.42;;;22.40;53.30;;;;;;6306012;28;20467;-74
2021/10/10 09:09:48;;;;;;;12.10;3.60;;;22.40;53.30;;;;;;6300436;28;20093;-74
2021/10/10 09:12:49;;;;;;;7.32;3.60;;;22.40;53.20;;;;;;6294376;28;20030;-74
2021/10/10 09:15:50;;;;;;;8.50;3.80;;;22.40;52.90;;;;;;6290295;28;20044;-73
2021/10/10 09:18:50;;;;;;;6.78;3.22;;;22.40;53.20;;;;;;6293244;28;20353;-73
2021/10/10 09:22:02;;;;;;;7.95;3.60;;;22.30;53.20;;;;;;6294054;28;20483;-74
2021/10/10 09:25:11;;;;;;;5.10;3.20;;;22.30;53.10;;;;;;6297689;28;20027;-74
2021/10/10 09:28:20;;;;;;;5.35;3.63;;;22.30;53.20;;;;;;6314923;28;20020;-74
2021/10/10 09:31:21;;;;;;;7.10;3.33;;;22.30;53.20;;;;;;6291233;28;20025;-74
2021/10/10 09:34:23;;;;;;;6.38;2.95;;;22.30;53.30;;;;;;6290349;28;20028;-74
2021/10/10 09:37:43;;;;;;;7.28;3.60;;;22.30;53.20;;;;;;6304304;28;20071;-74
2021/10/10 09:40:53;;;;;;;5.32;3.30;;;22.30;53.30;;;;;;6290003;28;20395;-74
2021/10/10 09:47:22;;;;;;;10.13;3.08;;;22.30;53.30;;;;;;6294161;28;20487;-74
2021/10/10 09:50:25;;;;;;;5.97;3.38;;;22.30;53.40;;;;;;6290314;28;20483;-74
2021/10/10 09:53:33;;;;;;;5.63;3.28;;;22.20;53.20;;;;;;6304807;28;20241;-74
2021/10/10 09:56:34;;;;;;;5.18;3.28;;;22.20;53.10;;;;;;6304750;28;20052;-74
2021/10/10 09:59:35;;;;;;;4.88;3.03;;;22.20;53.20;;;;;;6295415;28;20031;-75
2021/10/10 10:02:39;;;;;;;4.70;2.97;;;22.20;53.20;;;;;;6299650;28;20037;-74
2021/10/10 10:05:40;;;;;;;6.75;3.50;;;22.20;53.20;;;;;;6311109;28;20375;-74
2021/10/10 10:08:40;;;;;;;5.00;3.17;;;22.20;53.20;;;;;;6302397;28;20070;-74
2021/10/10 10:11:43;;;;;;;6.05;3.47;;;22.20;53.20;;;;;;6303033;28;20490;-73
2021/10/10 10:14:48;;;;;;;5.03;3.13;;;22.20;53.30;;;;;;6306976;28;20094;-74
2021/10/10 10:17:49;;;;;;;3.88;2.85;;;22.20;53.20;;;;;;6312330;28;20017;-74
2021/10/10 10:20:49;;;;;;;4.10;2.88;;;22.20;53.20;;;;;;6295634;28;20055;-74
2021/10/10 10:23:52;;;;;;;6.22;3.42;;;22.20;53.30;;;;;;6297818;28;20399;-73
2021/10/10 10:26:53;;;;;;;5.70;3.30;;;22.20;53.30;;;;;;6307450;28;20025;-73
2021/10/10 10:29:55;;;;;;;3.95;2.85;;;22.20;53.20;;;;;;6294964;28;20016;-74
2021/10/10 10:32:56;;;;;;;4.97;2.78;;;22.20;53.20;;;;;;6310861;28;20336;-74
2021/10/10 10:35:58;;;;;;;4.78;2.80;;;22.20;53.30;;;;;;6306691;28;20075;-74
2021/10/10 10:38:58;;;;;;;5.45;3.15;;;22.20;53.20;;;;;;6301126;28;20514;-74
2021/10/10 10:41:59;;;;;;;14.77;2.85;;;22.20;53.20;;;;;;6313743;28;20465;-74
2021/10/10 10:45:00;;;;;;;5.43;2.80;;;22.20;53.30;;;;;;6296244;28;20029;-74
2021/10/10 10:48:06;;;;;;;3.85;2.78;;;22.20;53.30;;;;;;6298737;28;20044;-74
2021/10/10 10:51:30;;;;;;;3.92;2.90;;;22.20;53.30;;;;;;6294814;28;20039;-74
2021/10/10 10:54:38;;;;;;;5.57;3.03;;;22.20;53.20;;;;;;6296200;28;20487;-74
2021/10/10 10:57:54;;;;;;;4.22;2.90;;;22.20;53.20;;;;;;6294798;28;20028;-74
2021/10/10 11:01:05;;;;;;;3.92;2.60;;;22.20;53.20;;;;;;6293886;28;20484;-75
2021/10/10 11:04:26;;;;;;;3.83;2.40;;;22.20;53.20;;;;;;6329210;28;20019;-75
2021/10/10 11:07:32;;;;;;;4.43;2.88;;;22.20;53.20;;;;;;6343290;28;20016;-75
2021/10/10 11:10:34;;;;;;;8.93;3.45;;;22.20;53.20;;;;;;6308812;28;20057;-75
2021/10/10 11:13:35;;;;;;;3.58;2.60;;;22.20;53.20;;;;;;6300492;28;20383;-74
2021/10/10 11:16:39;;;;;;;3.88;2.38;;;22.20;53.20;;;;;;6300999;28;20024;-74
2021/10/10 11:19:42;;;;;;;4.35;2.70;;;22.30;53.30;;;;;;6299867;28;20103;-74
2021/10/10 11:22:42;;;;;;;3.78;2.63;;;22.20;53.30;;;;;;6295883;28;20032;-75
2021/10/10 11:25:43;;;;;;;5.10;2.53;;;22.20;53.20;;;;;;6296549;28;20060;-74
2021/10/10 11:28:57;;;;;;;4.35;2.58;;;22.30;53.40;;;;;;6311628;28;20499;-74
2021/10/10 11:32:01;;;;;;;4.68;2.88;;;22.30;53.30;;;;;;6301714;28;20030;-74
2021/10/10 11:35:01;;;;;;;7.28;2.72;;;22.30;53.40;;;;;;6309304;28;20142;-74
2021/10/10 11:38:04;;;;;;;4.85;2.92;;;22.30;53.30;;;;;;6309018;28;20060;-74
2021/10/10 11:41:05;;;;;;;3.88;2.58;;;22.30;53.40;;;;;;6293553;28;20092;-75
2021/10/10 11:44:08;;;;;;;5.70;2.95;;;22.30;53.30;;;;;;6311639;28;20021;-75
2021/10/10 11:47:28;;;;;;;4.05;2.35;;;22.30;53.40;;;;;;6265427;28;20091;-74
2021/10/10 11:50:33;;;;;;;5.13;2.90;;;22.30;53.30;;;;;;6261481;28;20086;-73
2021/10/10 11:53:38;;;;;;;5.13;2.60;;;22.30;53.30;;;;;;6264990;28;20464;-74
2021/10/10 11:56:55;;;;;;;3.88;2.47;;;22.30;53.40;;;;;;6265627;28;20037;-74
2021/10/10 12:00:09;;;;;;;4.00;2.38;;;22.30;53.40;;;;;;6265783;28;20526;-74
2021/10/10 12:03:14;;;;;;;3.95;2.40;;;22.30;53.40;;;;;;6260830;28;20036;-74
2021/10/10 12:06:19;;;;;;;4.82;2.58;;;22.30;53.50;;;;;;6265448;28;20037;-74
2021/10/10 12:09:20;;;;;;;5.15;2.45;;;22.30;53.50;;;;;;6262881;28;20048;-74
2021/10/10 12:12:21;;;;;;;6.57;2.38;;;22.30;53.60;;;;;;6263991;28;20045;-75
2021/10/10 12:15:23;;;;;;;3.55;2.33;;;22.30;53.50;;;;;;6263848;28;20122;-75
2021/10/10 12:18:29;;;;;;;5.43;2.60;;;22.30;53.50;;;;;;6297521;28;20051;-74
2021/10/10 12:21:31;;;;;;;3.75;2.50;;;22.30;53.40;;;;;;6293415;28;20040;-75
2021/10/10 12:24:41;;;;;;;4.72;2.22;;;22.30;52.10;;;;;;6296176;28;20020;-74
2021/10/10 12:27:53;;;;;;;5.95;2.47;;;22.40;51.40;;;;;;6296986;28;20042;-74
2021/10/10 12:30:59;;;;;;;6.03;2.35;;;22.50;50.80;;;;;;6295715;28;20533;-73
2021/10/10 12:34:09;;;;;;;3.17;2.25;;;22.60;50.70;;;;;;6305217;28;20038;-74
2021/10/10 12:37:21;;;;;;;6.50;2.58;;;22.70;50.30;;;;;;6317740;28;20401;-74
2021/10/10 12:40:30;;;;;;;5.10;2.10;;;22.80;50.00;;;;;;6305168;28;20115;-76
2021/10/10 12:43:40;;;;;;;4.47;2.15;;;22.90;49.80;;;;;;6297811;28;20031;-74
2021/10/10 12:46:52;;;;;;;4.63;2.30;;;22.90;49.90;;;;;;6295668;28;20388;-73
2021/10/10 12:49:55;;;;;;;4.93;1.95;;;23.00;49.60;;;;;;6303622;28;20021;-74
2021/10/10 12:52:55;;;;;;;6.15;2.45;;;23.00;49.80;;;;;;6304213;28;20028;-73
2021/10/10 12:56:19;;;;;;;4.90;2.00;;;23.00;49.90;;;;;;6297941;28;20514;-74
2021/10/10 12:59:23;;;;;;;3.08;1.92;;;23.00;49.80;;;;;;6311223;28;20024;-73
2021/10/10 13:02:24;;;;;;;4.82;1.92;;;23.00;49.80;;;;;;6299924;28;20070;-73
2021/10/10 13:05:24;;;;;;;7.13;2.30;;;22.90;49.70;;;;;;6333358;28;20019;-74
2021/10/10 13:08:25;;;;;;;6.20;2.05;;;22.90;49.70;;;;;;6320583;28;20031;-74
2021/10/10 13:11:28;;;;;;;5.45;2.30;;;23.00;50.00;;;;;;6291809;28;20145;-74
2021/10/10 13:14:30;;;;;;;2.72;2.00;;;23.00;49.80;;;;;;6294631;28;20052;-73
2021/10/10 13:17:31;;;;;;;3.50;2.05;;;23.00;49.70;;;;;;6294771;28;20372;-73
2021/10/10 13:20:31;;;;;;;6.25;2.25;;;23.00;49.70;;;;;;6291241;28;20123;-73
2021/10/10 13:23:32;;;;;;;8.70;1.90;;;23.00;49.70;;;;;;6295126;28;20017;-74
2021/10/10 13:26:33;;;;;;;5.00;1.88;;;23.00;49.60;;;;;;6302544;28;20487;-73
2021/10/10 13:29:34;;;;;;;4.10;1.80;;;23.00;49.60;;;;;;6290321;28;20189;-74
2021/10/10 13:32:35;;;;;;;3.28;1.90;;;23.00;49.70;;;;;;6301501;28;20028;-73
2021/10/10 13:35:38;;;;;;;4.43;1.90;;;23.00;49.70;;;;;;6296447;28;20028;-73
2021/10/10 13:38:39;;;;;;;3.60;1.90;;;23.00;49.60;;;;;;6301861;28;20064;-73
2021/10/10 13:41:40;;;;;;;3.63;2.00;;;23.00;49.60;;;;;;6303041;28;20025;-73
2021/10/10 13:44:40;;;;;;;3.05;1.52;;;23.00;49.60;;;;;;6295927;28;20368;-73
2021/10/10 13:47:41;;;;;;;5.93;2.13;;;23.00;49.60;;;;;;6301074;28;20217;-73
2021/10/10 13:50:41;;;;;;;2.10;1.52;;;23.00;49.60;;;;;;6296626;28;20036;-73
2021/10/10 13:53:42;;;;;;;5.25;2.00;;;23.00;49.60;;;;;;6305756;28;20134;-73
2021/10/10 13:56:42;;;;;;;6.03;2.13;;;23.00;49.50;;;;;;6297026;28;20024;-73
2021/10/10 13:59:43;;;;;;;5.13;1.88;;;23.00;49.40;;;;;;6302048;28;20039;-73
2021/10/10 14:02:43;;;;;;;2.20;1.40;;;23.10;49.40;;;;;;6302568;28;20039;-73
2021/10/10 14:05:46;;;;;;;3.33;1.98;;;23.00;49.30;;;;;;6295133;28;20526;-73
2021/10/10 14:08:46;;;;;;;3.30;1.63;;;23.00;49.30;;;;;;6313791;28;20472;-73
2021/10/10 14:11:47;;;;;;;3.85;2.03;;;23.00;49.20;;;;;;6296417;28;20052;-73
2021/10/10 14:14:48;;;;;;;2.72;1.60;;;23.00;49.20;;;;;;6306260;28;20028;-73
2021/10/10 14:17:48;;;;;;;8.57;1.95;;;23.00;49.10;;;;;;6311549;28;20172;-73
2021/10/10 14:20:50;;;;;;;2.88;1.80;;;23.10;49.10;;;;;;6295824;28;20085;-73
2021/10/10 14:23:51;;;;;;;3.55;2.00;;;23.00;49.10;;;;;;6298522;28;20031;-73
2021/10/10 14:26:51;;;;;;;7.35;2.03;;;23.00;49.10;;;;;;6306816;28;20024;-73
2021/10/10 14:29:52;;;;;;;2.53;1.70;;;23.10;49.10;;;;;;6295081;28;20048;-73
2021/10/10 14:32:54;;;;;;;2.50;1.90;;;23.00;49.00;;;;;;6306462;28;20033;-72
2021/10/10 14:35:54;;;;;;;2.58;1.48;;;23.10;49.00;;;;;;6311248;28;20028;-73
2021/10/10 14:38:55;;;;;;;3.53;1.63;;;23.10;49.00;;;;;;6303112;28;20123;-73
2021/10/10 14:42:01;;;;;;;4.10;1.58;;;23.10;49.00;;;;;;6301458;28;20038;-73
2021/10/10 14:48:26;;;;;;;4.17;1.67;;;23.10;48.90;;;;;;6291502;28;20484;-73
2021/10/10 14:51:30;;;;;;;11.13;1.92;;;23.10;49.10;;;;;;6294628;28;20031;-75
2021/10/10 14:54:30;;;;;;;4.35;2.10;;;23.10;49.00;;;;;;6312381;28;20016;-73
2021/10/10 14:57:34;;;;;;;8.48;2.35;;;23.10;47.70;;;;;;6297881;28;20430;-72
2021/10/10 15:00:34;;;;;;;6.93;2.63;;;23.10;46.10;;;;;;6294601;28;20033;-72
2021/10/10 15:03:35;;;;;;;5.25;2.80;;;23.10;45.30;;;;;;6317628;28;20057;-72
2021/10/10 15:06:36;;;;;;;8.85;2.92;;;23.10;44.50;;;;;;6329558;28;20059;-72
2021/10/10 15:09:37;;;;;;;6.88;3.65;;;23.00;44.10;;;;;;6302673;28;20521;-73
2021/10/10 15:12:38;;;;;;;9.48;3.25;;;23.00;43.60;;;;;;6295594;28;20039;-73
2021/10/10 15:15:40;;;;;;;13.13;3.75;;;23.00;43.10;;;;;;6295885;28;20028;-72
2021/10/10 15:18:41;;;;;;;6.63;3.45;;;23.00;42.60;;;;;;6298296;28;20072;-73
2021/10/10 15:21:41;;;;;;;8.57;4.13;;;23.00;42.20;;;;;;6292910;28;20070;-73
2021/10/10 15:24:42;;;;;;;9.07;3.88;;;23.00;43.00;;;;;;6306792;28;20024;-73
2021/10/10 15:27:42;;;;;;;6.82;2.95;;;23.00;43.30;;;;;;6307821;28;20021;-73
2021/10/10 15:30:45;;;;;;;10.60;3.95;;;23.00;43.60;;;;;;6296175;28;20217;-74
2021/10/10 15:33:45;;;;;;;17.75;3.80;;;23.00;44.00;;;;;;6296245;28;20095;-73
2021/10/10 15:36:46;;;;;;;10.63;3.88;;;23.00;44.20;;;;;;6298600;28;20024;-73
2021/10/10 15:39:46;;;;;;;9.00;3.33;;;23.10;44.50;;;;;;6305841;28;20502;-74
2021/10/10 15:42:47;;;;;;;6.13;3.15;;;23.00;44.90;;;;;;6305451;28;20080;-73
2021/10/10 15:45:47;;;;;;;11.63;3.55;;;23.10;45.30;;;;;;6296054;28;20369;-73
2021/10/10 15:48:48;;;;;;;9.32;3.00;;;23.10;45.30;;;;;;6297039;28;20086;-73
2021/10/10 15:51:49;;;;;;;9.13;3.10;;;23.10;45.10;;;;;;6295793;28;20024;-73
2021/10/10 15:54:50;;;;;;;9.73;3.28;;;23.10;45.20;;;;;;6293392;28;20082;-72
2021/10/10 15:57:50;;;;;;;9.52;3.30;;;23.10;45.30;;;;;;6295559;28;20029;-73
2021/10/10 16:00:51;;;;;;;7.30;3.25;;;23.10;45.30;;;;;;6292021;28;20029;-73
2021/10/10 16:03:51;;;;;;;12.35;3.72;;;23.10;45.40;;;;;;6295658;28;20020;-73
2021/10/10 16:06:52;;;;;;;9.68;3.40;;;23.10;45.50;;;;;;6294269;28;20099;-73